sensor_id;sensor_type;location;lat;lon;timestamp;noise_LAeq;noise_LA_min;noise_LA_max;noise_LA01;noise_LA95
45651;Laerm;31365;48.858;8.530;2023-02-15T00:00:28;51.59;32.93;70.99;;
45651;Laerm;31365;48.858;8.530;2023-02-15T00:02:56;40.70;34.69;44.35;;
45651;Laerm;31365;48.858;8.530;2023-02-15T00:05:25;38.83;33.44;48.69;;
45651;Laerm;31365;48.858;8.530;2023-02-15T00:07:53;38.56;32.35;44.39;;
45651;Laerm;31365;48.858;8.530;2023-02-15T00:10:21;41.16;35.01;44.54;;
45651;Laerm;31365;48.858;8.530;2023-02-15T00:12:50;38.76;32.93;41.46;;
45651;Laerm;31365;48.858;8.530;2023-02-15T00:15:18;53.06;32.93;73.05;;
45651;Laerm;31365;48.858;8.530;2023-02-15T00:17:48;40.14;33.90;51.08;;
45651;Laerm;31365;48.858;8.530;2023-02-15T00:20:16;38.58;33.90;41.06;;
45651;Laerm;31365;48.858;8.530;2023-02-15T00:22:46;38.50;32.93;41.46;;
45651;Laerm;31365;48.858;8.530;2023-02-15T00:25:14;38.67;31.68;42.03;;
45651;Laerm;31365;48.858;8.530;2023-02-15T00:27:42;38.81;33.44;41.30;;
45651;Laerm;31365;48.858;8.530;2023-02-15T00:30:12;38.96;33.90;44.19;;
45651;Laerm;31365;48.858;8.530;2023-02-15T00:32:40;38.35;32.35;41.30;;
45651;Laerm;31365;48.858;8.530;2023-02-15T00:35:10;38.06;29.92;40.89;;
45651;Laerm;31365;48.858;8.530;2023-02-15T00:37:38;38.66;32.35;42.64;;
45651;Laerm;31365;48.858;8.530;2023-02-15T00:40:08;58.70;33.90;81.47;;
45651;Laerm;31365;48.858;8.530;2023-02-15T00:42:37;38.92;32.93;44.15;;
45651;Laerm;31365;48.858;8.530;2023-02-15T00:45:06;50.34;32.35;67.83;;
45651;Laerm;31365;48.858;8.530;2023-02-15T00:47:34;38.94;33.55;43.44;;
45651;Laerm;31365;48.858;8.530;2023-02-15T00:50:04;39.21;32.93;43.94;;
45651;Laerm;31365;48.858;8.530;2023-02-15T00:52:34;50.22;33.44;68.28;;
45651;Laerm;31365;48.858;8.530;2023-02-15T00:55:03;38.40;30.89;44.73;;
45651;Laerm;31365;48.858;8.530;2023-02-15T00:57:31;37.96;32.35;41.55;;
45651;Laerm;31365;48.858;8.530;2023-02-15T00:59:59;55.52;31.68;75.47;;
45651;Laerm;31365;48.858;8.530;2023-02-15T01:02:28;39.55;31.68;50.57;;
45651;Laerm;31365;48.858;8.530;2023-02-15T01:04:56;38.55;32.93;43.19;;
45651;Laerm;31365;48.858;8.530;2023-02-15T01:07:26;38.07;31.68;41.89;;
45651;Laerm;31365;48.858;8.530;2023-02-15T01:09:56;38.92;32.35;44.62;;
45651;Laerm;31365;48.858;8.530;2023-02-15T01:12:24;37.98;30.89;40.98;;
45651;Laerm;31365;48.858;8.530;2023-02-15T01:14:52;37.98;30.89;40.98;;
45651;Laerm;31365;48.858;8.530;2023-02-15T01:17:21;38.39;32.35;43.44;;
45651;Laerm;31365;48.858;8.530;2023-02-15T01:19:49;38.26;33.90;42.03;;
45651;Laerm;31365;48.858;8.530;2023-02-15T01:22:19;40.68;33.90;51.83;;
45651;Laerm;31365;48.858;8.530;2023-02-15T01:24:49;38.29;29.92;43.44;;
45651;Laerm;31365;48.858;8.530;2023-02-15T01:27:18;38.44;33.44;41.30;;
45651;Laerm;31365;48.858;8.530;2023-02-15T01:29:47;38.54;32.35;41.53;;
45651;Laerm;31365;48.858;8.530;2023-02-15T01:32:15;52.48;34.69;73.79;;
45651;Laerm;31365;48.858;8.530;2023-02-15T01:34:44;61.14;33.90;81.56;;
45651;Laerm;31365;48.858;8.530;2023-02-15T01:37:12;38.23;32.93;41.06;;
45651;Laerm;31365;48.858;8.530;2023-02-15T01:39:41;38.39;32.35;41.06;;
45651;Laerm;31365;48.858;8.530;2023-02-15T01:42:11;38.39;32.93;41.30;;
45651;Laerm;31365;48.858;8.530;2023-02-15T01:44:50;38.24;32.35;42.59;;
45651;Laerm;31365;48.858;8.530;2023-02-15T01:47:26;58.56;31.68;77.97;;
45651;Laerm;31365;48.858;8.530;2023-02-15T01:50:07;51.10;33.90;69.08;;
45651;Laerm;31365;48.858;8.530;2023-02-15T01:52:45;55.40;32.93;77.32;;
45651;Laerm;31365;48.858;8.530;2023-02-15T01:55:16;39.52;33.90;51.07;;
45651;Laerm;31365;48.858;8.530;2023-02-15T01:57:46;38.71;33.90;46.78;;
45651;Laerm;31365;48.858;8.530;2023-02-15T02:00:18;39.12;33.44;45.60;;
45651;Laerm;31365;48.858;8.530;2023-02-15T02:02:52;38.59;32.93;43.63;;
45651;Laerm;31365;48.858;8.530;2023-02-15T02:05:25;38.22;31.68;41.22;;
45651;Laerm;31365;48.858;8.530;2023-02-15T02:07:58;39.84;32.93;61.58;;
45651;Laerm;31365;48.858;8.530;2023-02-15T02:10:30;38.41;32.35;44.11;;
45651;Laerm;31365;48.858;8.530;2023-02-15T02:13:03;38.84;33.90;42.29;;
45651;Laerm;31365;48.858;8.530;2023-02-15T02:15:45;38.70;32.93;43.58;;
45651;Laerm;31365;48.858;8.530;2023-02-15T02:18:36;38.62;29.92;41.22;;
45651;Laerm;31365;48.858;8.530;2023-02-15T02:21:44;38.58;33.44;44.73;;
45651;Laerm;31365;48.858;8.530;2023-02-15T02:25:06;51.83;34.31;72.36;;
45651;Laerm;31365;48.858;8.530;2023-02-15T02:27:47;38.78;33.90;41.38;;
45651;Laerm;31365;48.858;8.530;2023-02-15T02:30:50;38.80;32.35;43.77;;
45651;Laerm;31365;48.858;8.530;2023-02-15T02:33:42;40.52;33.90;54.71;;
45651;Laerm;31365;48.858;8.530;2023-02-15T02:36:27;38.73;33.44;43.04;;
45651;Laerm;31365;48.858;8.530;2023-02-15T02:39:14;38.96;34.69;42.22;;
45651;Laerm;31365;48.858;8.530;2023-02-15T02:41:58;38.89;33.44;44.07;;
45651;Laerm;31365;48.858;8.530;2023-02-15T02:44:38;39.10;32.93;43.81;;
45651;Laerm;31365;48.858;8.530;2023-02-15T02:47:16;61.98;34.31;82.40;;
45651;Laerm;31365;48.858;8.530;2023-02-15T02:49:57;38.42;33.44;43.04;;
45651;Laerm;31365;48.858;8.530;2023-02-15T02:52:40;55.90;32.35;78.48;;
45651;Laerm;31365;48.858;8.530;2023-02-15T02:55:16;38.47;32.93;41.61;;
45651;Laerm;31365;48.858;8.530;2023-02-15T02:57:54;38.38;32.93;43.19;;
45651;Laerm;31365;48.858;8.530;2023-02-15T03:00:27;39.32;32.93;44.35;;
45651;Laerm;31365;48.858;8.530;2023-02-15T03:03:03;38.79;32.35;41.61;;
45651;Laerm;31365;48.858;8.530;2023-02-15T03:05:40;49.10;32.93;72.73;;
45651;Laerm;31365;48.858;8.530;2023-02-15T03:08:10;53.70;34.31;73.16;;
45651;Laerm;31365;48.858;8.530;2023-02-15T03:10:41;52.36;33.90;73.89;;
45651;Laerm;31365;48.858;8.530;2023-02-15T03:13:09;39.31;35.04;42.35;;
45651;Laerm;31365;48.858;8.530;2023-02-15T03:15:41;39.76;34.69;43.19;;
45651;Laerm;31365;48.858;8.530;2023-02-15T03:18:36;52.62;35.04;72.39;;
45651;Laerm;31365;48.858;8.530;2023-02-15T03:21:09;39.49;35.04;41.96;;
45651;Laerm;31365;48.858;8.530;2023-02-15T03:23:53;54.05;35.04;75.01;;
45651;Laerm;31365;48.858;8.530;2023-02-15T03:26:24;58.90;34.69;78.47;;
45651;Laerm;31365;48.858;8.530;2023-02-15T03:28:56;54.91;35.04;77.40;;
45651;Laerm;31365;48.858;8.530;2023-02-15T03:31:31;53.16;35.36;74.71;;
45651;Laerm;31365;48.858;8.530;2023-02-15T03:34:04;64.46;35.04;86.11;;
45651;Laerm;31365;48.858;8.530;2023-02-15T03:36:44;56.80;34.31;77.17;;
45651;Laerm;31365;48.858;8.530;2023-02-15T03:39:21;39.92;35.04;46.76;;
45651;Laerm;31365;48.858;8.530;2023-02-15T03:42:00;55.58;35.36;75.01;;
45651;Laerm;31365;48.858;8.530;2023-02-15T03:44:42;48.38;35.94;70.58;;
45651;Laerm;31365;48.858;8.530;2023-02-15T03:47:19;55.61;36.69;73.56;;
45651;Laerm;31365;48.858;8.530;2023-02-15T03:49:55;57.57;36.45;79.70;;
45651;Laerm;31365;48.858;8.530;2023-02-15T03:52:29;51.12;36.45;71.97;;
45651;Laerm;31365;48.858;8.530;2023-02-15T03:54:59;825.21;0.00;18494647683753925093697034753859.04;;
45651;Laerm;31365;48.858;8.530;2023-02-15T03:57:29;53.11;36.20;72.16;;
45651;Laerm;31365;48.858;8.530;2023-02-15T04:00:19;54.47;34.31;76.89;;
45651;Laerm;31365;48.858;8.530;2023-02-15T04:03:23;42.61;38.37;48.52;;
45651;Laerm;31365;48.858;8.530;2023-02-15T04:05:54;52.20;35.66;69.92;;
45651;Laerm;31365;48.858;8.530;2023-02-15T04:08:24;58.61;35.94;77.24;;
45651;Laerm;31365;48.858;8.530;2023-02-15T04:11:12;59.29;35.36;77.86;;
45651;Laerm;31365;48.858;8.530;2023-02-15T04:13:41;55.74;36.45;75.05;;
45651;Laerm;31365;48.858;8.530;2023-02-15T04:16:09;64.88;36.91;84.73;;
45651;Laerm;31365;48.858;8.530;2023-02-15T04:18:40;57.90;36.45;78.05;;
45651;Laerm;31365;48.858;8.530;2023-02-15T04:21:30;61.85;33.90;81.03;;
45651;Laerm;31365;48.858;8.530;2023-02-15T04:24:18;62.86;38.81;78.28;;
45651;Laerm;31365;48.858;8.530;2023-02-15T04:29:33;63.17;37.12;79.59;;
45651;Laerm;31365;48.858;8.530;2023-02-15T04:32:01;60.60;36.69;78.85;;
45651;Laerm;31365;48.858;8.530;2023-02-15T04:34:30;60.95;36.69;78.08;;
45651;Laerm;31365;48.858;8.530;2023-02-15T04:36:59;58.99;39.58;75.51;;
45651;Laerm;31365;48.858;8.530;2023-02-15T04:39:28;60.54;38.37;76.60;;
45651;Laerm;31365;48.858;8.530;2023-02-15T04:41:57;61.45;39.70;77.89;;
45651;Laerm;31365;48.858;8.530;2023-02-15T04:44:25;60.94;37.88;78.25;;
45651;Laerm;31365;48.858;8.530;2023-02-15T04:46:53;65.67;40.43;84.53;;
45651;Laerm;31365;48.858;8.530;2023-02-15T04:51:52;60.32;37.32;78.37;;
45651;Laerm;31365;48.858;8.530;2023-02-15T04:54:20;62.21;38.52;77.94;;
45651;Laerm;31365;48.858;8.530;2023-02-15T04:56:50;62.51;41.96;78.25;;
45651;Laerm;31365;48.858;8.530;2023-02-15T04:59:18;61.70;39.92;81.89;;
45651;Laerm;31365;48.858;8.530;2023-02-15T05:01:47;62.12;38.32;81.40;;
45651;Laerm;31365;48.858;8.530;2023-02-15T05:04:16;62.61;42.76;78.65;;
45651;Laerm;31365;48.858;8.530;2023-02-15T05:06:44;61.53;39.34;78.42;;
45651;Laerm;31365;48.858;8.530;2023-02-15T05:09:12;62.18;38.52;79.27;;
45651;Laerm;31365;48.858;8.530;2023-02-15T05:11:40;60.88;38.21;76.54;;
45651;Laerm;31365;48.858;8.530;2023-02-15T05:14:12;61.67;38.67;78.77;;
45651;Laerm;31365;48.858;8.530;2023-02-15T05:16:40;62.69;40.53;78.32;;
45651;Laerm;31365;48.858;8.530;2023-02-15T05:19:08;65.04;40.80;82.29;;
45651;Laerm;31365;48.858;8.530;2023-02-15T05:21:36;62.36;38.67;79.53;;
45651;Laerm;31365;48.858;8.530;2023-02-15T05:24:05;63.23;38.52;82.59;;
45651;Laerm;31365;48.858;8.530;2023-02-15T05:26:54;64.44;41.89;78.75;;
45651;Laerm;31365;48.858;8.530;2023-02-15T05:29:42;63.85;44.54;80.53;;
45651;Laerm;31365;48.858;8.530;2023-02-15T05:32:13;68.78;42.59;86.71;;
45651;Laerm;31365;48.858;8.530;2023-02-15T05:34:42;64.41;43.09;78.87;;
45651;Laerm;31365;48.858;8.530;2023-02-15T05:37:10;61.11;40.62;76.57;;
45651;Laerm;31365;48.858;8.530;2023-02-15T05:39:38;65.04;40.13;80.17;;
45651;Laerm;31365;48.858;8.530;2023-02-15T05:42:07;63.11;38.52;76.32;;
45651;Laerm;31365;48.858;8.530;2023-02-15T05:44:35;65.30;44.07;78.32;;
45651;Laerm;31365;48.858;8.530;2023-02-15T05:47:05;65.30;44.07;78.32;;
45651;Laerm;31365;48.858;8.530;2023-02-15T05:49:34;63.69;42.88;77.80;;
45651;Laerm;31365;48.858;8.530;2023-02-15T05:52:03;63.43;41.38;76.51;;
45651;Laerm;31365;48.858;8.530;2023-02-15T05:54:32;64.28;41.22;79.07;;
45651;Laerm;31365;48.858;8.530;2023-02-15T05:59:28;65.00;42.29;78.30;;
45651;Laerm;31365;48.858;8.530;2023-02-15T06:01:56;65.62;42.16;79.34;;
45651;Laerm;31365;48.858;8.530;2023-02-15T06:04:26;67.34;43.77;84.13;;
45651;Laerm;31365;48.858;8.530;2023-02-15T06:06:55;63.99;41.14;78.82;;
45651;Laerm;31365;48.858;8.530;2023-02-15T06:09:23;64.17;44.07;77.80;;
45651;Laerm;31365;48.858;8.530;2023-02-15T06:11:52;64.98;43.58;77.92;;
45651;Laerm;31365;48.858;8.530;2023-02-15T06:14:21;65.80;46.23;79.97;;
45651;Laerm;31365;48.858;8.530;2023-02-15T06:16:51;67.57;43.90;83.26;;
45651;Laerm;31365;48.858;8.530;2023-02-15T06:19:19;65.09;43.29;77.74;;
45651;Laerm;31365;48.858;8.530;2023-02-15T06:21:51;66.24;44.65;77.72;;
45651;Laerm;31365;48.858;8.530;2023-02-15T06:24:19;67.32;49.66;82.11;;
45651;Laerm;31365;48.858;8.530;2023-02-15T06:26:48;69.11;45.23;86.31;;
45651;Laerm;31365;48.858;8.530;2023-02-15T06:29:16;66.41;44.39;85.14;;
45651;Laerm;31365;48.858;8.530;2023-02-15T06:31:45;66.43;45.33;81.45;;
45651;Laerm;31365;48.858;8.530;2023-02-15T06:34:14;63.85;42.03;78.02;;
45651;Laerm;31365;48.858;8.530;2023-02-15T06:36:42;66.09;43.81;83.04;;
45651;Laerm;31365;48.858;8.530;2023-02-15T06:39:13;66.91;42.98;81.72;;
45651;Laerm;31365;48.858;8.530;2023-02-15T06:41:41;65.83;42.71;85.09;;
45651;Laerm;31365;48.858;8.530;2023-02-15T06:44:10;65.72;43.19;83.01;;
45651;Laerm;31365;48.858;8.530;2023-02-15T06:46:38;63.14;40.80;78.42;;
45651;Laerm;31365;48.858;8.530;2023-02-15T06:49:07;65.46;43.94;80.13;;
45651;Laerm;31365;48.858;8.530;2023-02-15T06:51:35;64.66;44.76;76.22;;
45651;Laerm;31365;48.858;8.530;2023-02-15T06:54:03;67.03;44.54;81.76;;
45651;Laerm;31365;48.858;8.530;2023-02-15T06:56:33;66.65;44.27;79.58;;
45651;Laerm;31365;48.858;8.530;2023-02-15T06:59:02;65.72;44.15;77.90;;
45651;Laerm;31365;48.858;8.530;2023-02-15T07:01:31;66.78;46.84;80.33;;
45651;Laerm;31365;48.858;8.530;2023-02-15T07:03:59;65.57;40.80;79.36;;
45651;Laerm;31365;48.858;8.530;2023-02-15T07:06:31;63.34;44.23;79.87;;
45651;Laerm;31365;48.858;8.530;2023-02-15T07:09:00;64.33;41.68;76.57;;
45651;Laerm;31365;48.858;8.530;2023-02-15T07:11:29;65.53;45.42;77.91;;
45651;Laerm;31365;48.858;8.530;2023-02-15T07:14:16;65.66;42.65;81.30;;
45651;Laerm;31365;48.858;8.530;2023-02-15T07:16:44;66.05;41.38;85.18;;
45651;Laerm;31365;48.858;8.530;2023-02-15T07:19:12;66.72;41.14;80.02;;
45651;Laerm;31365;48.858;8.530;2023-02-15T07:21:41;62.91;38.37;78.53;;
45651;Laerm;31365;48.858;8.530;2023-02-15T07:24:11;64.31;43.24;81.12;;
45651;Laerm;31365;48.858;8.530;2023-02-15T07:26:39;64.89;43.34;82.79;;
45651;Laerm;31365;48.858;8.530;2023-02-15T07:29:07;67.96;42.82;83.23;;
45651;Laerm;31365;48.858;8.530;2023-02-15T07:31:37;65.02;43.99;78.01;;
45651;Laerm;31365;48.858;8.530;2023-02-15T07:34:06;63.93;44.11;79.06;;
45651;Laerm;31365;48.858;8.530;2023-02-15T07:36:34;64.45;44.11;77.66;;
45651;Laerm;31365;48.858;8.530;2023-02-15T07:39:03;66.93;43.72;85.97;;
45651;Laerm;31365;48.858;8.530;2023-02-15T07:41:31;62.51;44.31;76.16;;
45651;Laerm;31365;48.858;8.530;2023-02-15T07:43:59;64.37;44.65;80.77;;
45651;Laerm;31365;48.858;8.530;2023-02-15T07:46:28;66.38;44.47;80.51;;
45651;Laerm;31365;48.858;8.530;2023-02-15T07:48:58;63.18;43.72;79.83;;
45651;Laerm;31365;48.858;8.530;2023-02-15T07:51:26;65.40;46.07;79.51;;
45651;Laerm;31365;48.858;8.530;2023-02-15T07:53:55;63.87;44.11;78.20;;
45651;Laerm;31365;48.858;8.530;2023-02-15T07:56:23;65.44;44.90;82.15;;
45651;Laerm;31365;48.858;8.530;2023-02-15T07:58:51;64.42;44.62;79.60;;
45651;Laerm;31365;48.858;8.530;2023-02-15T08:01:22;65.28;44.90;84.09;;
45651;Laerm;31365;48.858;8.530;2023-02-15T08:03:51;65.53;42.65;86.06;;
45651;Laerm;31365;48.858;8.530;2023-02-15T08:06:23;57.54;40.71;73.13;;
45651;Laerm;31365;48.858;8.530;2023-02-15T08:08:52;65.13;43.90;79.51;;
45651;Laerm;31365;48.858;8.530;2023-02-15T08:11:23;64.54;43.39;80.06;;
45651;Laerm;31365;48.858;8.530;2023-02-15T08:14:02;66.97;43.49;82.13;;
45651;Laerm;31365;48.858;8.530;2023-02-15T08:16:34;63.02;40.71;76.87;;
45651;Laerm;31365;48.858;8.530;2023-02-15T08:19:06;62.89;42.22;77.55;;
45651;Laerm;31365;48.858;8.530;2023-02-15T08:21:40;61.73;41.14;77.41;;
45651;Laerm;31365;48.858;8.530;2023-02-15T08:24:11;63.99;42.22;78.17;;
45651;Laerm;31365;48.858;8.530;2023-02-15T08:26:40;62.78;42.93;75.88;;
45651;Laerm;31365;48.858;8.530;2023-02-15T08:29:09;63.11;40.33;76.26;;
45651;Laerm;31365;48.858;8.530;2023-02-15T08:31:38;64.22;41.14;80.21;;
45651;Laerm;31365;48.858;8.530;2023-02-15T08:34:10;65.29;42.65;79.93;;
45651;Laerm;31365;48.858;8.530;2023-02-15T08:36:40;68.51;44.97;96.56;;
45651;Laerm;31365;48.858;8.530;2023-02-15T08:39:08;73.90;42.47;96.03;;
45651;Laerm;31365;48.858;8.530;2023-02-15T08:41:39;62.81;39.81;83.79;;
45651;Laerm;31365;48.858;8.530;2023-02-15T08:44:09;68.46;43.94;87.88;;
45651;Laerm;31365;48.858;8.530;2023-02-15T08:46:40;64.26;41.75;76.74;;
45651;Laerm;31365;48.858;8.530;2023-02-15T08:49:09;62.68;42.41;78.40;;
45651;Laerm;31365;48.858;8.530;2023-02-15T08:51:40;66.53;43.39;81.26;;
45651;Laerm;31365;48.858;8.530;2023-02-15T08:54:12;64.70;41.14;80.45;;
45651;Laerm;31365;48.858;8.530;2023-02-15T08:56:42;61.07;40.89;75.37;;
45651;Laerm;31365;48.858;8.530;2023-02-15T08:59:14;65.20;42.71;81.86;;
45651;Laerm;31365;48.858;8.530;2023-02-15T09:01:44;63.36;41.89;78.45;;
45651;Laerm;31365;48.858;8.530;2023-02-15T09:04:13;60.70;40.89;74.44;;
45651;Laerm;31365;48.858;8.530;2023-02-15T09:06:46;63.26;40.98;77.64;;
45651;Laerm;31365;48.858;8.530;2023-02-15T09:09:16;64.82;42.47;79.08;;
45651;Laerm;31365;48.858;8.530;2023-02-15T09:11:47;65.18;43.09;87.92;;
45651;Laerm;31365;48.858;8.530;2023-02-15T09:14:21;63.11;41.46;78.31;;
45651;Laerm;31365;48.858;8.530;2023-02-15T09:16:53;65.16;45.39;80.79;;
45651;Laerm;31365;48.858;8.530;2023-02-15T09:19:23;63.43;41.22;79.49;;
45651;Laerm;31365;48.858;8.530;2023-02-15T09:21:54;64.66;41.68;79.46;;
45651;Laerm;31365;48.858;8.530;2023-02-15T09:24:22;62.82;43.39;75.22;;
45651;Laerm;31365;48.858;8.530;2023-02-15T09:26:51;65.86;42.35;82.15;;
45651;Laerm;31365;48.858;8.530;2023-02-15T09:29:19;64.07;40.89;79.87;;
45651;Laerm;31365;48.858;8.530;2023-02-15T09:31:50;61.90;42.47;75.71;;
45651;Laerm;31365;48.858;8.530;2023-02-15T09:34:22;64.05;42.47;77.88;;
45651;Laerm;31365;48.858;8.530;2023-02-15T09:36:51;62.32;43.24;75.50;;
45651;Laerm;31365;48.858;8.530;2023-02-15T09:39:23;62.28;41.14;77.55;;
45651;Laerm;31365;48.858;8.530;2023-02-15T09:42:41;61.02;42.16;73.87;;
45651;Laerm;31365;48.858;8.530;2023-02-15T09:45:31;63.90;44.23;78.20;;
45651;Laerm;31365;48.858;8.530;2023-02-15T09:48:23;62.37;40.71;81.07;;
45651;Laerm;31365;48.858;8.530;2023-02-15T09:51:19;63.28;42.53;78.47;;
45651;Laerm;31365;48.858;8.530;2023-02-15T09:54:09;66.28;39.81;85.99;;
45651;Laerm;31365;48.858;8.530;2023-02-15T09:56:50;61.65;40.23;78.87;;
45651;Laerm;31365;48.858;8.530;2023-02-15T09:59:34;59.82;40.71;75.15;;
45651;Laerm;31365;48.858;8.530;2023-02-15T10:02:24;60.12;40.53;77.37;;
45651;Laerm;31365;48.858;8.530;2023-02-15T10:05:14;62.36;42.16;78.57;;
45651;Laerm;31365;48.858;8.530;2023-02-15T10:08:25;61.57;41.38;77.60;;
45651;Laerm;31365;48.858;8.530;2023-02-15T10:11:08;64.14;43.24;81.73;;
45651;Laerm;31365;48.858;8.530;2023-02-15T10:14:15;63.56;43.63;78.00;;
45651;Laerm;31365;48.858;8.530;2023-02-15T10:16:56;63.23;42.35;78.91;;
45651;Laerm;31365;48.858;8.530;2023-02-15T10:19:39;63.79;41.82;79.35;;
45651;Laerm;31365;48.858;8.530;2023-02-15T10:22:24;62.16;40.53;78.41;;
45651;Laerm;31365;48.858;8.530;2023-02-15T10:25:22;64.46;42.53;85.28;;
45651;Laerm;31365;48.858;8.530;2023-02-15T10:28:04;61.23;40.98;78.13;;
45651;Laerm;31365;48.858;8.530;2023-02-15T10:30:44;62.89;41.46;81.37;;
45651;Laerm;31365;48.858;8.530;2023-02-15T10:33:38;62.71;41.30;80.69;;
45651;Laerm;31365;48.858;8.530;2023-02-15T10:36:32;64.76;43.90;77.81;;
45651;Laerm;31365;48.858;8.530;2023-02-15T10:39:19;64.46;42.35;76.87;;
45651;Laerm;31365;48.858;8.530;2023-02-15T10:42:03;67.39;58.36;79.78;;
45651;Laerm;31365;48.858;8.530;2023-02-15T10:44:54;63.41;43.77;73.81;;
45651;Laerm;31365;48.858;8.530;2023-02-15T10:47:44;63.35;40.80;76.63;;
45651;Laerm;31365;48.858;8.530;2023-02-15T10:50:40;66.93;44.11;83.32;;
45651;Laerm;31365;48.858;8.530;2023-02-15T10:53:25;63.61;41.14;76.21;;
45651;Laerm;31365;48.858;8.530;2023-02-15T10:56:10;61.12;41.68;76.57;;
45651;Laerm;31365;48.858;8.530;2023-02-15T10:59:03;62.51;44.51;75.16;;
45651;Laerm;31365;48.858;8.530;2023-02-15T11:01:41;63.85;43.34;76.08;;
45651;Laerm;31365;48.858;8.530;2023-02-15T11:04:45;66.05;42.41;85.74;;
45651;Laerm;31365;48.858;8.530;2023-02-15T11:07:21;64.68;44.27;80.53;;
45651;Laerm;31365;48.858;8.530;2023-02-15T11:10:01;61.53;38.95;75.98;;
45651;Laerm;31365;48.858;8.530;2023-02-15T11:12:33;66.68;40.43;82.60;;
45651;Laerm;31365;48.858;8.530;2023-02-15T11:15:13;69.42;41.30;89.80;;
45651;Laerm;31365;48.858;8.530;2023-02-15T11:17:50;64.80;44.87;77.86;;
45651;Laerm;31365;48.858;8.530;2023-02-15T11:20:27;61.92;42.35;76.63;;
45651;Laerm;31365;48.858;8.530;2023-02-15T11:22:58;63.62;41.46;78.34;;
45651;Laerm;31365;48.858;8.530;2023-02-15T11:25:31;59.75;41.68;74.65;;
45651;Laerm;31365;48.858;8.530;2023-02-15T11:28:04;65.75;40.62;82.64;;
45651;Laerm;31365;48.858;8.530;2023-02-15T11:30:44;62.34;39.58;80.64;;
45651;Laerm;31365;48.858;8.530;2023-02-15T11:33:20;64.75;40.43;80.11;;
45651;Laerm;31365;48.858;8.530;2023-02-15T11:35:57;63.53;42.22;81.89;;
45651;Laerm;31365;48.858;8.530;2023-02-15T11:38:31;61.04;40.98;72.95;;
45651;Laerm;31365;48.858;8.530;2023-02-15T11:41:07;59.75;41.14;78.55;;
45651;Laerm;31365;48.858;8.530;2023-02-15T11:43:42;60.41;43.39;75.38;;
45651;Laerm;31365;48.858;8.530;2023-02-15T11:46:14;64.41;45.36;81.50;;
45651;Laerm;31365;48.858;8.530;2023-02-15T11:48:43;62.26;44.15;75.28;;
45651;Laerm;31365;48.858;8.530;2023-02-15T11:51:16;61.88;40.62;74.31;;
45651;Laerm;31365;48.858;8.530;2023-02-15T11:53:49;61.77;41.30;77.35;;
45651;Laerm;31365;48.858;8.530;2023-02-15T11:56:21;62.77;40.80;77.45;;
45651;Laerm;31365;48.858;8.530;2023-02-15T11:58:56;61.13;41.89;76.90;;
45651;Laerm;31365;48.858;8.530;2023-02-15T12:01:32;63.63;42.65;76.79;;
45651;Laerm;31365;48.858;8.530;2023-02-15T12:04:07;66.20;41.30;84.54;;
45651;Laerm;31365;48.858;8.530;2023-02-15T12:06:46;62.54;39.34;78.73;;
45651;Laerm;31365;48.858;8.530;2023-02-15T12:09:26;63.20;40.43;80.34;;
45651;Laerm;31365;48.858;8.530;2023-02-15T12:12:21;64.34;44.15;80.17;;
45651;Laerm;31365;48.858;8.530;2023-02-15T12:14:51;60.95;41.06;74.17;;
45651;Laerm;31365;48.858;8.530;2023-02-15T12:17:24;62.82;42.93;75.38;;
45651;Laerm;31365;48.858;8.530;2023-02-15T12:19:55;67.01;42.76;82.26;;
45651;Laerm;31365;48.858;8.530;2023-02-15T12:22:31;64.21;44.35;79.10;;
45651;Laerm;31365;48.858;8.530;2023-02-15T12:25:11;66.17;43.29;87.82;;
45651;Laerm;31365;48.858;8.530;2023-02-15T12:27:48;62.36;40.89;76.66;;
45651;Laerm;31365;48.858;8.530;2023-02-15T12:30:22;63.12;40.62;79.56;;
45651;Laerm;31365;48.858;8.530;2023-02-15T12:32:57;64.58;41.82;82.03;;
45651;Laerm;31365;48.858;8.530;2023-02-15T12:35:30;61.87;42.76;76.68;;
45651;Laerm;31365;48.858;8.530;2023-02-15T12:38:03;63.97;44.39;81.02;;
45651;Laerm;31365;48.858;8.530;2023-02-15T12:40:33;61.25;41.33;76.35;;
45651;Laerm;31365;48.858;8.530;2023-02-15T12:43:02;60.72;40.71;77.16;;
45651;Laerm;31365;48.858;8.530;2023-02-15T12:45:36;62.10;40.62;76.80;;
45651;Laerm;31365;48.858;8.530;2023-02-15T12:48:13;61.92;44.90;72.87;;
45651;Laerm;31365;48.858;8.530;2023-02-15T12:50:43;62.20;41.06;79.12;;
45651;Laerm;31365;48.858;8.530;2023-02-15T12:53:16;63.14;43.49;81.58;;
45651;Laerm;31365;48.858;8.530;2023-02-15T12:55:52;64.77;40.89;82.88;;
45651;Laerm;31365;48.858;8.530;2023-02-15T12:58:22;58.54;39.34;73.40;;
45651;Laerm;31365;48.858;8.530;2023-02-15T13:01:03;57.54;40.18;74.35;;
45651;Laerm;31365;48.858;8.530;2023-02-15T13:03:32;61.76;40.23;74.89;;
45651;Laerm;31365;48.858;8.530;2023-02-15T13:06:01;61.40;42.09;78.19;;
45651;Laerm;31365;48.858;8.530;2023-02-15T13:08:39;61.28;;;;
45651;Laerm;31365;48.858;8.530;2023-02-15T13:11:19;60.37;41.75;76.23;;
45651;Laerm;31365;48.858;8.530;2023-02-15T13:13:51;58.89;40.80;75.34;;
45651;Laerm;31365;48.858;8.530;2023-02-15T13:16:28;61.66;40.71;75.65;;
45651;Laerm;31365;48.858;8.530;2023-02-15T13:19:02;64.22;41.38;83.45;;
45651;Laerm;31365;48.858;8.530;2023-02-15T13:21:34;62.36;43.09;75.90;;
45651;Laerm;31365;48.858;8.530;2023-02-15T13:24:06;68.64;44.94;86.04;;
45651;Laerm;31365;48.858;8.530;2023-02-15T13:26:36;61.47;40.23;73.34;;
45651;Laerm;31365;48.858;8.530;2023-02-15T13:29:06;62.43;40.80;80.63;;
45651;Laerm;31365;48.858;8.530;2023-02-15T13:31:38;62.53;42.47;76.04;;
45651;Laerm;31365;48.858;8.530;2023-02-15T13:34:11;63.73;40.80;81.38;;
45651;Laerm;31365;48.858;8.530;2023-02-15T13:36:49;61.75;43.54;78.40;;
45651;Laerm;31365;48.858;8.530;2023-02-15T13:39:26;63.89;47.61;76.90;;
45651;Laerm;31365;48.858;8.530;2023-02-15T13:42:00;64.13;46.93;75.31;;
45651;Laerm;31365;48.858;8.530;2023-02-15T13:44:52;67.22;48.34;86.80;;
45651;Laerm;31365;48.858;8.530;2023-02-15T13:47:27;61.56;46.80;73.72;;
45651;Laerm;31365;48.858;8.530;2023-02-15T13:50:18;62.53;46.23;74.32;;
45651;Laerm;31365;48.858;8.530;2023-02-15T13:52:53;61.07;45.97;74.60;;
45651;Laerm;31365;48.858;8.530;2023-02-15T13:55:34;62.99;46.82;74.94;;
45651;Laerm;31365;48.858;8.530;2023-02-15T13:58:25;62.83;47.10;76.30;;
45651;Laerm;31365;48.858;8.530;2023-02-15T14:01:07;62.93;46.76;75.85;;
45651;Laerm;31365;48.858;8.530;2023-02-15T14:04:03;64.10;47.50;80.12;;
45651;Laerm;31365;48.858;8.530;2023-02-15T14:06:55;61.43;46.35;74.77;;
45651;Laerm;31365;48.858;8.530;2023-02-15T14:09:40;63.81;47.14;79.05;;
45651;Laerm;31365;48.858;8.530;2023-02-15T14:12:27;62.03;47.74;74.82;;
45651;Laerm;31365;48.858;8.530;2023-02-15T14:15:09;64.79;48.39;83.04;;
45651;Laerm;31365;48.858;8.530;2023-02-15T14:17:47;62.51;49.94;78.61;;
45651;Laerm;31365;48.858;8.530;2023-02-15T14:20:21;62.21;45.77;76.70;;
45651;Laerm;31365;48.858;8.530;2023-02-15T14:22:56;62.52;48.00;76.40;;
45651;Laerm;31365;48.858;8.530;2023-02-15T14:25:34;63.08;48.70;75.04;;
45651;Laerm;31365;48.858;8.530;2023-02-15T14:28:10;64.03;46.91;79.94;;
45651;Laerm;31365;48.858;8.530;2023-02-15T14:30:41;63.70;47.68;82.66;;
45651;Laerm;31365;48.858;8.530;2023-02-15T14:33:29;62.73;46.45;78.51;;